sensor_id;sensor_type;location;lat;lon;timestamp;temperature;humidity
26541;DHT22;14206;50.202;10.948;2023-09-19T00:00:42;16.60;96.60
26541;DHT22;14206;50.202;10.948;2023-09-19T00:03:10;16.60;96.60
26541;DHT22;14206;50.202;10.948;2023-09-19T00:05:39;16.60;96.60
26541;DHT22;14206;50.202;10.948;2023-09-19T00:08:06;16.50;96.60
26541;DHT22;14206;50.202;10.948;2023-09-19T00:10:33;16.50;96.60
26541;DHT22;14206;50.202;10.948;2023-09-19T00:13:04;16.40;96.60
26541;DHT22;14206;50.202;10.948;2023-09-19T00:15:38;16.40;96.60
26541;DHT22;14206;50.202;10.948;2023-09-19T00:18:06;16.30;96.60
26541;DHT22;14206;50.202;10.948;2023-09-19T00:20:36;16.30;96.60
26541;DHT22;14206;50.202;10.948;2023-09-19T00:23:04;16.20;96.60
26541;DHT22;14206;50.202;10.948;2023-09-19T00:25:31;16.20;96.60
26541;DHT22;14206;50.202;10.948;2023-09-19T00:28:03;16.20;96.60
26541;DHT22;14206;50.202;10.948;2023-09-19T00:30:30;16.20;96.60
26541;DHT22;14206;50.202;10.948;2023-09-19T00:32:57;16.10;96.60
26541;DHT22;14206;50.202;10.948;2023-09-19T00:35:24;16.10;96.60
26541;DHT22;14206;50.202;10.948;2023-09-19T00:37:52;16.10;96.60
26541;DHT22;14206;50.202;10.948;2023-09-19T00:40:19;16.00;96.60
26541;DHT22;14206;50.202;10.948;2023-09-19T00:42:48;16.00;96.60
26541;DHT22;14206;50.202;10.948;2023-09-19T00:45:17;15.90;96.60
26541;DHT22;14206;50.202;10.948;2023-09-19T00:47:47;15.90;96.60
26541;DHT22;14206;50.202;10.948;2023-09-19T00:50:19;15.90;96.60
26541;DHT22;14206;50.202;10.948;2023-09-19T00:52:47;15.80;96.60
26541;DHT22;14206;50.202;10.948;2023-09-19T00:55:16;15.80;96.60
26541;DHT22;14206;50.202;10.948;2023-09-19T00:57:47;15.80;96.60
26541;DHT22;14206;50.202;10.948;2023-09-19T01:00:14;15.70;96.60
26541;DHT22;14206;50.202;10.948;2023-09-19T01:02:47;15.70;96.60
26541;DHT22;14206;50.202;10.948;2023-09-19T01:05:15;15.70;96.60
26541;DHT22;14206;50.202;10.948;2023-09-19T01:07:42;15.70;96.60
26541;DHT22;14206;50.202;10.948;2023-09-19T01:10:13;15.60;96.60
26541;DHT22;14206;50.202;10.948;2023-09-19T01:13:13;15.60;96.60
26541;DHT22;14206;50.202;10.948;2023-09-19T01:18:51;15.60;96.60
26541;DHT22;14206;50.202;10.948;2023-09-19T01:21:26;15.50;96.60
26541;DHT22;14206;50.202;10.948;2023-09-19T01:24:16;15.50;96.60
26541;DHT22;14206;50.202;10.948;2023-09-19T01:32:03;15.50;96.60
26541;DHT22;14206;50.202;10.948;2023-09-19T01:34:54;15.40;96.60
26541;DHT22;14206;50.202;10.948;2023-09-19T01:37:23;15.40;96.60
26541;DHT22;14206;50.202;10.948;2023-09-19T01:40:06;15.40;96.60
26541;DHT22;14206;50.202;10.948;2023-09-19T01:51:07;15.30;96.60
26541;DHT22;14206;50.202;10.948;2023-09-19T01:56:34;15.30;96.60
26541;DHT22;14206;50.202;10.948;2023-09-19T01:59:07;15.30;96.60
26541;DHT22;14206;50.202;10.948;2023-09-19T02:01:37;15.30;96.60
26541;DHT22;14206;50.202;10.948;2023-09-19T02:04:05;15.30;96.60
26541;DHT22;14206;50.202;10.948;2023-09-19T02:06:47;15.30;96.60
26541;DHT22;14206;50.202;10.948;2023-09-19T02:09:14;15.30;96.60
26541;DHT22;14206;50.202;10.948;2023-09-19T02:11:41;15.40;96.60
26541;DHT22;14206;50.202;10.948;2023-09-19T02:14:08;15.40;96.60
26541;DHT22;14206;50.202;10.948;2023-09-19T02:16:35;15.50;96.60
26541;DHT22;14206;50.202;10.948;2023-09-19T02:19:03;15.50;96.60
26541;DHT22;14206;50.202;10.948;2023-09-19T02:21:32;15.50;96.60
26541;DHT22;14206;50.202;10.948;2023-09-19T02:24:03;15.50;96.60
26541;DHT22;14206;50.202;10.948;2023-09-19T02:26:30;15.60;96.60
26541;DHT22;14206;50.202;10.948;2023-09-19T02:28:57;15.60;96.60
26541;DHT22;14206;50.202;10.948;2023-09-19T02:31:24;15.70;96.60
26541;DHT22;14206;50.202;10.948;2023-09-19T02:33:53;15.80;96.60
26541;DHT22;14206;50.202;10.948;2023-09-19T02:36:21;15.90;96.60
26541;DHT22;14206;50.202;10.948;2023-09-19T02:38:48;16.00;96.60
26541;DHT22;14206;50.202;10.948;2023-09-19T02:41:15;16.00;96.60
26541;DHT22;14206;50.202;10.948;2023-09-19T02:43:42;16.00;96.60
26541;DHT22;14206;50.202;10.948;2023-09-19T02:46:09;16.00;96.60
26541;DHT22;14206;50.202;10.948;2023-09-19T02:48:38;16.00;96.60
26541;DHT22;14206;50.202;10.948;2023-09-19T02:51:05;16.00;96.60
26541;DHT22;14206;50.202;10.948;2023-09-19T02:53:33;16.00;96.60
26541;DHT22;14206;50.202;10.948;2023-09-19T02:55:59;15.90;96.60
26541;DHT22;14206;50.202;10.948;2023-09-19T02:58:27;15.80;96.60
26541;DHT22;14206;50.202;10.948;2023-09-19T03:00:57;15.80;96.60
26541;DHT22;14206;50.202;10.948;2023-09-19T03:03:24;15.80;96.60
26541;DHT22;14206;50.202;10.948;2023-09-19T03:05:52;15.80;96.60
26541;DHT22;14206;50.202;10.948;2023-09-19T03:08:21;15.80;96.60
26541;DHT22;14206;50.202;10.948;2023-09-19T03:10:48;15.80;96.60
26541;DHT22;14206;50.202;10.948;2023-09-19T03:13:16;15.80;96.60
26541;DHT22;14206;50.202;10.948;2023-09-19T03:15:44;15.90;96.60
26541;DHT22;14206;50.202;10.948;2023-09-19T03:18:15;15.90;96.60
26541;DHT22;14206;50.202;10.948;2023-09-19T03:20:42;16.00;96.60
26541;DHT22;14206;50.202;10.948;2023-09-19T03:23:09;16.00;96.60
26541;DHT22;14206;50.202;10.948;2023-09-19T03:25:37;16.00;96.60
26541;DHT22;14206;50.202;10.948;2023-09-19T03:28:04;16.10;96.60
26541;DHT22;14206;50.202;10.948;2023-09-19T03:30:33;16.10;96.60
26541;DHT22;14206;50.202;10.948;2023-09-19T03:33:02;16.20;96.60
26541;DHT22;14206;50.202;10.948;2023-09-19T03:35:32;16.20;96.60
26541;DHT22;14206;50.202;10.948;2023-09-19T03:38:00;16.30;96.60
26541;DHT22;14206;50.202;10.948;2023-09-19T03:40:27;16.40;96.60
26541;DHT22;14206;50.202;10.948;2023-09-19T03:42:54;16.50;96.60
26541;DHT22;14206;50.202;10.948;2023-09-19T03:45:21;16.60;96.60
26541;DHT22;14206;50.202;10.948;2023-09-19T03:47:52;16.60;96.60
26541;DHT22;14206;50.202;10.948;2023-09-19T03:50:21;16.60;96.60
26541;DHT22;14206;50.202;10.948;2023-09-19T03:52:49;16.70;96.60
26541;DHT22;14206;50.202;10.948;2023-09-19T03:55:17;16.80;96.60
26541;DHT22;14206;50.202;10.948;2023-09-19T03:57:48;16.80;96.60
26541;DHT22;14206;50.202;10.948;2023-09-19T04:00:17;16.80;96.60
26541;DHT22;14206;50.202;10.948;2023-09-19T04:02:48;16.80;96.60
26541;DHT22;14206;50.202;10.948;2023-09-19T04:05:15;16.80;96.60
26541;DHT22;14206;50.202;10.948;2023-09-19T04:07:43;16.80;96.60
26541;DHT22;14206;50.202;10.948;2023-09-19T04:10:10;16.80;96.60
26541;DHT22;14206;50.202;10.948;2023-09-19T04:12:53;16.80;96.60
26541;DHT22;14206;50.202;10.948;2023-09-19T04:15:27;16.90;96.60
26541;DHT22;14206;50.202;10.948;2023-09-19T04:17:54;16.90;96.60
26541;DHT22;14206;50.202;10.948;2023-09-19T04:20:22;16.90;96.60
26541;DHT22;14206;50.202;10.948;2023-09-19T04:22:51;16.90;96.60
26541;DHT22;14206;50.202;10.948;2023-09-19T04:25:19;17.00;96.60
26541;DHT22;14206;50.202;10.948;2023-09-19T04:27:47;17.00;96.60
26541;DHT22;14206;50.202;10.948;2023-09-19T04:30:14;17.00;96.60
26541;DHT22;14206;50.202;10.948;2023-09-19T04:32:42;17.00;96.60
26541;DHT22;14206;50.202;10.948;2023-09-19T04:35:10;17.10;96.60
26541;DHT22;14206;50.202;10.948;2023-09-19T04:37:40;17.10;96.60
26541;DHT22;14206;50.202;10.948;2023-09-19T04:40:11;17.10;96.60
26541;DHT22;14206;50.202;10.948;2023-09-19T04:42:44;17.10;96.60
26541;DHT22;14206;50.202;10.948;2023-09-19T04:45:12;17.10;96.60
26541;DHT22;14206;50.202;10.948;2023-09-19T04:47:39;17.10;96.60
26541;DHT22;14206;50.202;10.948;2023-09-19T04:50:08;17.10;96.60
26541;DHT22;14206;50.202;10.948;2023-09-19T04:52:40;17.10;96.60
26541;DHT22;14206;50.202;10.948;2023-09-19T04:55:15;17.10;96.60
26541;DHT22;14206;50.202;10.948;2023-09-19T04:57:46;17.10;96.60
26541;DHT22;14206;50.202;10.948;2023-09-19T05:00:18;17.10;96.60
26541;DHT22;14206;50.202;10.948;2023-09-19T05:02:48;17.10;96.60
26541;DHT22;14206;50.202;10.948;2023-09-19T05:05:16;17.10;96.60
26541;DHT22;14206;50.202;10.948;2023-09-19T05:07:44;17.10;96.60
26541;DHT22;14206;50.202;10.948;2023-09-19T05:10:12;17.10;96.60
26541;DHT22;14206;50.202;10.948;2023-09-19T05:12:41;17.10;96.60
26541;DHT22;14206;50.202;10.948;2023-09-19T05:15:08;17.00;96.60
26541;DHT22;14206;50.202;10.948;2023-09-19T05:17:36;17.00;96.60
26541;DHT22;14206;50.202;10.948;2023-09-19T05:20:03;17.00;96.60
26541;DHT22;14206;50.202;10.948;2023-09-19T05:22:36;16.90;96.60
26541;DHT22;14206;50.202;10.948;2023-09-19T05:25:03;16.90;96.60
26541;DHT22;14206;50.202;10.948;2023-09-19T05:27:31;16.90;96.60
26541;DHT22;14206;50.202;10.948;2023-09-19T05:29:58;16.80;96.60
26541;DHT22;14206;50.202;10.948;2023-09-19T05:32:25;16.80;96.60
26541;DHT22;14206;50.202;10.948;2023-09-19T05:34:52;16.80;96.60
26541;DHT22;14206;50.202;10.948;2023-09-19T05:37:23;16.80;96.60
26541;DHT22;14206;50.202;10.948;2023-09-19T05:39:50;16.80;96.60
26541;DHT22;14206;50.202;10.948;2023-09-19T05:42:24;16.70;96.60
26541;DHT22;14206;50.202;10.948;2023-09-19T05:44:59;16.70;96.60
26541;DHT22;14206;50.202;10.948;2023-09-19T05:47:26;16.80;96.60
26541;DHT22;14206;50.202;10.948;2023-09-19T05:49:53;16.80;96.60
26541;DHT22;14206;50.202;10.948;2023-09-19T05:52:20;16.80;96.60
26541;DHT22;14206;50.202;10.948;2023-09-19T05:54:49;16.80;96.60
26541;DHT22;14206;50.202;10.948;2023-09-19T05:57:16;16.80;96.60
26541;DHT22;14206;50.202;10.948;2023-09-19T05:59:43;16.90;96.60
26541;DHT22;14206;50.202;10.948;2023-09-19T06:02:10;16.90;96.60
26541;DHT22;14206;50.202;10.948;2023-09-19T06:04:39;17.00;96.60
26541;DHT22;14206;50.202;10.948;2023-09-19T06:07:09;17.00;96.60
26541;DHT22;14206;50.202;10.948;2023-09-19T06:09:35;17.10;96.60
26541;DHT22;14206;50.202;10.948;2023-09-19T06:12:03;17.10;96.60
26541;DHT22;14206;50.202;10.948;2023-09-19T06:14:30;17.20;96.60
26541;DHT22;14206;50.202;10.948;2023-09-19T06:16:57;17.30;96.60
26541;DHT22;14206;50.202;10.948;2023-09-19T06:19:24;17.40;96.60
26541;DHT22;14206;50.202;10.948;2023-09-19T06:21:53;17.60;96.60
26541;DHT22;14206;50.202;10.948;2023-09-19T06:24:21;17.70;96.60
26541;DHT22;14206;50.202;10.948;2023-09-19T06:26:48;17.90;96.60
26541;DHT22;14206;50.202;10.948;2023-09-19T06:29:16;18.10;96.60
26541;DHT22;14206;50.202;10.948;2023-09-19T06:31:43;18.30;96.60
26541;DHT22;14206;50.202;10.948;2023-09-19T06:34:11;18.40;96.60
26541;DHT22;14206;50.202;10.948;2023-09-19T06:36:41;18.60;96.60
26541;DHT22;14206;50.202;10.948;2023-09-19T06:39:10;18.70;96.20
26541;DHT22;14206;50.202;10.948;2023-09-19T06:41:38;18.80;95.30
26541;DHT22;14206;50.202;10.948;2023-09-19T06:44:10;18.80;95.00
26541;DHT22;14206;50.202;10.948;2023-09-19T06:46:36;18.90;94.10
26541;DHT22;14206;50.202;10.948;2023-09-19T06:49:05;18.90;94.50
26541;DHT22;14206;50.202;10.948;2023-09-19T06:51:33;18.90;92.40
26541;DHT22;14206;50.202;10.948;2023-09-19T06:54:02;18.80;93.00
26541;DHT22;14206;50.202;10.948;2023-09-19T06:56:29;18.80;92.70
26541;DHT22;14206;50.202;10.948;2023-09-19T06:58:55;18.80;92.70
26541;DHT22;14206;50.202;10.948;2023-09-19T07:01:22;18.80;92.70
26541;DHT22;14206;50.202;10.948;2023-09-19T07:03:49;18.90;93.10
26541;DHT22;14206;50.202;10.948;2023-09-19T07:06:16;19.00;92.40
26541;DHT22;14206;50.202;10.948;2023-09-19T07:08:44;19.20;92.00
26541;DHT22;14206;50.202;10.948;2023-09-19T07:11:12;19.30;90.80
26541;DHT22;14206;50.202;10.948;2023-09-19T07:13:39;19.30;90.30
26541;DHT22;14206;50.202;10.948;2023-09-19T07:16:06;19.30;89.30
26541;DHT22;14206;50.202;10.948;2023-09-19T07:18:36;19.30;88.80
26541;DHT22;14206;50.202;10.948;2023-09-19T07:21:03;19.30;89.40
26541;DHT22;14206;50.202;10.948;2023-09-19T07:23:32;19.40;89.50
26541;DHT22;14206;50.202;10.948;2023-09-19T07:26:01;19.40;89.30
26541;DHT22;14206;50.202;10.948;2023-09-19T07:28:32;19.40;89.10
26541;DHT22;14206;50.202;10.948;2023-09-19T07:31:02;19.40;89.10
26541;DHT22;14206;50.202;10.948;2023-09-19T07:33:30;19.40;88.90
26541;DHT22;14206;50.202;10.948;2023-09-19T07:35:57;19.40;88.70
26541;DHT22;14206;50.202;10.948;2023-09-19T07:38:27;19.40;88.30
26541;DHT22;14206;50.202;10.948;2023-09-19T07:41:00;19.60;88.10
26541;DHT22;14206;50.202;10.948;2023-09-19T07:43:27;19.80;87.50
26541;DHT22;14206;50.202;10.948;2023-09-19T07:45:54;19.90;86.60
26541;DHT22;14206;50.202;10.948;2023-09-19T07:48:21;20.00;86.00
26541;DHT22;14206;50.202;10.948;2023-09-19T07:50:48;20.00;86.00
26541;DHT22;14206;50.202;10.948;2023-09-19T07:53:15;20.00;86.40
26541;DHT22;14206;50.202;10.948;2023-09-19T07:55:44;19.90;86.20
26541;DHT22;14206;50.202;10.948;2023-09-19T07:58:15;20.00;85.50
26541;DHT22;14206;50.202;10.948;2023-09-19T08:00:42;20.20;85.10
26541;DHT22;14206;50.202;10.948;2023-09-19T08:03:09;20.80;84.70
26541;DHT22;14206;50.202;10.948;2023-09-19T08:05:46;21.00;82.70
26541;DHT22;14206;50.202;10.948;2023-09-19T08:08:15;21.00;82.20
26541;DHT22;14206;50.202;10.948;2023-09-19T08:10:42;21.20;81.50
26541;DHT22;14206;50.202;10.948;2023-09-19T08:13:12;21.50;81.10
26541;DHT22;14206;50.202;10.948;2023-09-19T08:15:45;22.20;81.00
26541;DHT22;14206;50.202;10.948;2023-09-19T08:18:12;22.90;78.10
26541;DHT22;14206;50.202;10.948;2023-09-19T08:20:40;23.40;76.30
26541;DHT22;14206;50.202;10.948;2023-09-19T08:23:09;23.20;75.10
26541;DHT22;14206;50.202;10.948;2023-09-19T08:25:35;22.90;75.90
26541;DHT22;14206;50.202;10.948;2023-09-19T08:28:05;22.40;76.20
26541;DHT22;14206;50.202;10.948;2023-09-19T08:30:35;22.10;77.50
26541;DHT22;14206;50.202;10.948;2023-09-19T08:33:07;22.10;78.00
26541;DHT22;14206;50.202;10.948;2023-09-19T08:35:34;22.20;78.20
26541;DHT22;14206;50.202;10.948;2023-09-19T08:38:02;22.20;77.20
26541;DHT22;14206;50.202;10.948;2023-09-19T08:40:31;22.10;77.20
26541;DHT22;14206;50.202;10.948;2023-09-19T08:43:00;21.90;78.00
26541;DHT22;14206;50.202;10.948;2023-09-19T08:45:27;21.90;78.50
26541;DHT22;14206;50.202;10.948;2023-09-19T08:50:39;21.90;78.40
26541;DHT22;14206;50.202;10.948;2023-09-19T08:53:11;22.00;76.80
26541;DHT22;14206;50.202;10.948;2023-09-19T08:55:40;22.10;76.70
26541;DHT22;14206;50.202;10.948;2023-09-19T08:58:10;22.20;76.50
26541;DHT22;14206;50.202;10.948;2023-09-19T09:00:38;22.40;74.70
26541;DHT22;14206;50.202;10.948;2023-09-19T09:03:10;22.60;74.70
26541;DHT22;14206;50.202;10.948;2023-09-19T09:05:39;22.70;73.90
26541;DHT22;14206;50.202;10.948;2023-09-19T09:08:10;22.90;74.60
26541;DHT22;14206;50.202;10.948;2023-09-19T09:10:37;23.30;74.90
26541;DHT22;14206;50.202;10.948;2023-09-19T09:13:05;23.80;73.30
26541;DHT22;14206;50.202;10.948;2023-09-19T09:15:36;23.80;69.30
26541;DHT22;14206;50.202;10.948;2023-09-19T09:18:17;23.70;70.10
26541;DHT22;14206;50.202;10.948;2023-09-19T09:20:44;23.60;70.80
26541;DHT22;14206;50.202;10.948;2023-09-19T09:23:11;23.50;69.10
26541;DHT22;14206;50.202;10.948;2023-09-19T09:25:54;23.50;70.00
26541;DHT22;14206;50.202;10.948;2023-09-19T09:28:24;23.70;70.50
26541;DHT22;14206;50.202;10.948;2023-09-19T09:30:52;24.20;69.40
26541;DHT22;14206;50.202;10.948;2023-09-19T09:33:19;24.20;69.20
26541;DHT22;14206;50.202;10.948;2023-09-19T09:35:56;24.00;68.10
26541;DHT22;14206;50.202;10.948;2023-09-19T09:38:28;23.70;69.10
26541;DHT22;14206;50.202;10.948;2023-09-19T09:40:59;23.50;68.70
26541;DHT22;14206;50.202;10.948;2023-09-19T09:43:35;23.30;69.60
26541;DHT22;14206;50.202;10.948;2023-09-19T09:48:59;24.30;69.70
26541;DHT22;14206;50.202;10.948;2023-09-19T09:51:49;25.10;68.00
26541;DHT22;14206;50.202;10.948;2023-09-19T09:54:25;26.00;65.90
26541;DHT22;14206;50.202;10.948;2023-09-19T09:56:58;26.90;65.10
26541;DHT22;14206;50.202;10.948;2023-09-19T09:59:49;27.60;61.90
26541;DHT22;14206;50.202;10.948;2023-09-19T10:02:19;27.40;60.40
26541;DHT22;14206;50.202;10.948;2023-09-19T10:04:53;27.70;59.20
26541;DHT22;14206;50.202;10.948;2023-09-19T10:07:35;28.00;57.10
26541;DHT22;14206;50.202;10.948;2023-09-19T10:10:07;28.20;57.60
26541;DHT22;14206;50.202;10.948;2023-09-19T10:12:44;28.60;57.00
26541;DHT22;14206;50.202;10.948;2023-09-19T10:15:18;28.90;56.00
26541;DHT22;14206;50.202;10.948;2023-09-19T10:17:48;28.80;54.70
26541;DHT22;14206;50.202;10.948;2023-09-19T10:20:17;28.70;54.50
26541;DHT22;14206;50.202;10.948;2023-09-19T10:22:55;28.70;56.60
26541;DHT22;14206;50.202;10.948;2023-09-19T10:25:29;29.10;53.80
26541;DHT22;14206;50.202;10.948;2023-09-19T10:28:06;29.40;53.50
26541;DHT22;14206;50.202;10.948;2023-09-19T10:30:47;29.40;51.90
26541;DHT22;14206;50.202;10.948;2023-09-19T10:33:21;29.20;51.30
26541;DHT22;14206;50.202;10.948;2023-09-19T10:35:50;28.90;51.00
26541;DHT22;14206;50.202;10.948;2023-09-19T10:38:27;28.60;52.40
26541;DHT22;14206;50.202;10.948;2023-09-19T10:40:57;28.50;53.00
26541;DHT22;14206;50.202;10.948;2023-09-19T10:43:33;28.50;53.00
26541;DHT22;14206;50.202;10.948;2023-09-19T10:46:06;28.70;52.80
26541;DHT22;14206;50.202;10.948;2023-09-19T10:48:35;28.70;52.70
26541;DHT22;14206;50.202;10.948;2023-09-19T10:51:18;29.00;52.50
26541;DHT22;14206;50.202;10.948;2023-09-19T10:54:05;29.00;52.50
26541;DHT22;14206;50.202;10.948;2023-09-19T10:56:36;28.30;52.70
26541;DHT22;14206;50.202;10.948;2023-09-19T10:59:07;28.20;54.20
26541;DHT22;14206;50.202;10.948;2023-09-19T11:04:40;29.10;53.40
26541;DHT22;14206;50.202;10.948;2023-09-19T11:07:12;29.50;52.50
26541;DHT22;14206;50.202;10.948;2023-09-19T11:15:03;29.10;51.50
26541;DHT22;14206;50.202;10.948;2023-09-19T11:17:38;29.00;52.10
26541;DHT22;14206;50.202;10.948;2023-09-19T11:30:45;28.30;54.60
26541;DHT22;14206;50.202;10.948;2023-09-19T11:33:28;28.50;54.80
26541;DHT22;14206;50.202;10.948;2023-09-19T11:46:27;30.00;47.60
26541;DHT22;14206;50.202;10.948;2023-09-19T11:48:55;29.90;48.40
26541;DHT22;14206;50.202;10.948;2023-09-19T11:51:40;29.80;48.20
26541;DHT22;14206;50.202;10.948;2023-09-19T11:54:14;29.80;48.70
26541;DHT22;14206;50.202;10.948;2023-09-19T11:56:45;29.60;47.00
26541;DHT22;14206;50.202;10.948;2023-09-19T11:59:23;28.90;48.60
26541;DHT22;14206;50.202;10.948;2023-09-19T12:01:56;28.50;50.60
26541;DHT22;14206;50.202;10.948;2023-09-19T12:07:07;29.30;51.70
26541;DHT22;14206;50.202;10.948;2023-09-19T12:09:39;29.30;50.20
26541;DHT22;14206;50.202;10.948;2023-09-19T12:12:11;29.10;51.30
26541;DHT22;14206;50.202;10.948;2023-09-19T12:14:51;28.70;50.60
26541;DHT22;14206;50.202;10.948;2023-09-19T12:17:18;28.60;51.60
26541;DHT22;14206;50.202;10.948;2023-09-19T12:19:53;28.50;49.70
26541;DHT22;14206;50.202;10.948;2023-09-19T12:22:20;28.50;49.10
26541;DHT22;14206;50.202;10.948;2023-09-19T12:24:48;28.60;49.20
26541;DHT22;14206;50.202;10.948;2023-09-19T12:27:15;29.10;48.60
26541;DHT22;14206;50.202;10.948;2023-09-19T12:29:47;29.70;47.30
26541;DHT22;14206;50.202;10.948;2023-09-19T12:32:18;30.00;46.60
26541;DHT22;14206;50.202;10.948;2023-09-19T12:34:52;30.00;44.90
26541;DHT22;14206;50.202;10.948;2023-09-19T12:37:21;29.50;44.80
26541;DHT22;14206;50.202;10.948;2023-09-19T12:39:50;29.30;46.70
26541;DHT22;14206;50.202;10.948;2023-09-19T12:42:23;28.90;46.10
26541;DHT22;14206;50.202;10.948;2023-09-19T12:44:52;28.10;46.60
26541;DHT22;14206;50.202;10.948;2023-09-19T12:47:24;27.10;47.40
26541;DHT22;14206;50.202;10.948;2023-09-19T12:50:14;26.40;50.50
26541;DHT22;14206;50.202;10.948;2023-09-19T12:52:48;25.90;51.40
26541;DHT22;14206;50.202;10.948;2023-09-19T13:03:16;24.20;54.50
26541;DHT22;14206;50.202;10.948;2023-09-19T13:05:53;24.00;54.30
26541;DHT22;14206;50.202;10.948;2023-09-19T13:11:08;23.80;54.40
26541;DHT22;14206;50.202;10.948;2023-09-19T13:13:49;23.70;54.70
26541;DHT22;14206;50.202;10.948;2023-09-19T13:16:21;23.60;54.30
26541;DHT22;14206;50.202;10.948;2023-09-19T13:21:30;23.40;55.20
26541;DHT22;14206;50.202;10.948;2023-09-19T13:24:23;23.20;53.20
26541;DHT22;14206;50.202;10.948;2023-09-19T13:26:53;23.00;54.10
26541;DHT22;14206;50.202;10.948;2023-09-19T13:29:20;23.00;55.30
26541;DHT22;14206;50.202;10.948;2023-09-19T13:31:51;22.90;54.10
26541;DHT22;14206;50.202;10.948;2023-09-19T13:34:22;22.90;55.90
26541;DHT22;14206;50.202;10.948;2023-09-19T13:36:50;23.00;56.00
26541;DHT22;14206;50.202;10.948;2023-09-19T13:39:17;23.20;56.60
26541;DHT22;14206;50.202;10.948;2023-09-19T13:41:45;23.20;56.00
26541;DHT22;14206;50.202;10.948;2023-09-19T13:44:14;23.00;56.10
26541;DHT22;14206;50.202;10.948;2023-09-19T13:46:41;22.90;55.70
26541;DHT22;14206;50.202;10.948;2023-09-19T13:49:13;22.70;56.30
26541;DHT22;14206;50.202;10.948;2023-09-19T13:51:40;22.60;57.40
26541;DHT22;14206;50.202;10.948;2023-09-19T13:54:10;22.50;56.50
26541;DHT22;14206;50.202;10.948;2023-09-19T13:56:38;22.40;56.80
26541;DHT22;14206;50.202;10.948;2023-09-19T13:59:06;22.20;56.50
26541;DHT22;14206;50.202;10.948;2023-09-19T14:01:33;22.10;57.00
26541;DHT22;14206;50.202;10.948;2023-09-19T14:04:00;22.10;57.60
26541;DHT22;14206;50.202;10.948;2023-09-19T14:06:29;22.00;57.70
26541;DHT22;14206;50.202;10.948;2023-09-19T14:08:56;22.00;57.80
26541;DHT22;14206;50.202;10.948;2023-09-19T14:11:23;21.90;57.40
26541;DHT22;14206;50.202;10.948;2023-09-19T14:13:50;21.80;57.80
26541;DHT22;14206;50.202;10.948;2023-09-19T14:16:21;21.70;57.90
26541;DHT22;14206;50.202;10.948;2023-09-19T14:18:49;21.70;58.70
26541;DHT22;14206;50.202;10.948;2023-09-19T14:21:16;21.60;58.70
26541;DHT22;14206;50.202;10.948;2023-09-19T14:23:43;21.60;59.50
26541;DHT22;14206;50.202;10.948;2023-09-19T14:26:10;21.60;60.10
26541;DHT22;14206;50.202;10.948;2023-09-19T14:28:37;21.60;59.80
26541;DHT22;14206;50.202;10.948;2023-09-19T14:31:08;21.60;60.70
26541;DHT22;14206;50.202;10.948;2023-09-19T14:33:35;21.60;60.70
26541;DHT22;14206;50.202;10.948;2023-09-19T14:36:07;21.50;60.60
26541;DHT22;14206;50.202;10.948;2023-09-19T14:38:36;21.60;61.70
26541;DHT22;14206;50.202;10.948;2023-09-19T14:41:04;21.60;60.90
26541;DHT22;14206;50.202;10.948;2023-09-19T14:43:32;21.70;61.30
26541;DHT22;14206;50.202;10.948;2023-09-19T14:46:06;21.70;61.10
26541;DHT22;14206;50.202;10.948;2023-09-19T14:48:43;21.60;61.30
26541;DHT22;14206;50.202;10.948;2023-09-19T14:51:11;21.60;60.20
26541;DHT22;14206;50.202;10.948;2023-09-19T14:53:42;21.50;60.90
26541;DHT22;14206;50.202;10.948;2023-09-19T14:56:09;21.50;61.40
26541;DHT22;14206;50.202;10.948;2023-09-19T14:58:38;21.40;61.50
26541;DHT22;14206;50.202;10.948;2023-09-19T15:01:11;21.30;61.70
26541;DHT22;14206;50.202;10.948;2023-09-19T15:03:39;21.30;62.10
26541;DHT22;14206;50.202;10.948;2023-09-19T15:06:08;21.30;62.00
26541;DHT22;14206;50.202;10.948;2023-09-19T15:08:37;21.20;62.50
26541;DHT22;14206;50.202;10.948;2023-09-19T15:11:07;21.20;62.40
26541;DHT22;14206;50.202;10.948;2023-09-19T15:13:35;21.20;62.50
26541;DHT22;14206;50.202;10.948;2023-09-19T15:16:04;21.20;63.30
26541;DHT22;14206;50.202;10.948;2023-09-19T15:18:31;21.10;63.50
26541;DHT22;14206;50.202;10.948;2023-09-19T15:21:01;21.10;63.40
26541;DHT22;14206;50.202;10.948;2023-09-19T15:23:27;21.10;63.30
26541;DHT22;14206;50.202;10.948;2023-09-19T15:25:58;21.10;63.40
26541;DHT22;14206;50.202;10.948;2023-09-19T15:28:25;21.00;64.20
26541;DHT22;14206;50.202;10.948;2023-09-19T15:31:03;21.00;63.90
26541;DHT22;14206;50.202;10.948;2023-09-19T15:33:31;21.00;63.90
26541;DHT22;14206;50.202;10.948;2023-09-19T15:36:12;21.00;64.50
26541;DHT22;14206;50.202;10.948;2023-09-19T15:39:03;21.00;64.40
26541;DHT22;14206;50.202;10.948;2023-09-19T15:41:35;21.00;64.60
26541;DHT22;14206;50.202;10.948;2023-09-19T15:44:03;21.00;63.50
26541;DHT22;14206;50.202;10.948;2023-09-19T15:46:32;21.00;63.50
26541;DHT22;14206;50.202;10.948;2023-09-19T15:49:03;20.90;62.90
26541;DHT22;14206;50.202;10.948;2023-09-19T15:51:30;20.90;62.50
26541;DHT22;14206;50.202;10.948;2023-09-19T15:53:57;20.90;62.10
26541;DHT22;14206;50.202;10.948;2023-09-19T15:56:26;20.90;62.90
26541;DHT22;14206;50.202;10.948;2023-09-19T15:58:54;20.90;63.20
26541;DHT22;14206;50.202;10.948;2023-09-19T16:01:22;20.90;63.70
26541;DHT22;14206;50.202;10.948;2023-09-19T16:03:50;20.90;63.50
26541;DHT22;14206;50.202;10.948;2023-09-19T16:06:26;20.90;63.70
26541;DHT22;14206;50.202;10.948;2023-09-19T16:08:55;20.90;63.60
26541;DHT22;14206;50.202;10.948;2023-09-19T16:11:23;20.90;63.30
26541;DHT22;14206;50.202;10.948;2023-09-19T16:13:51;20.90;63.40
26541;DHT22;14206;50.202;10.948;2023-09-19T16:16:19;20.80;63.40
26541;DHT22;14206;50.202;10.948;2023-09-19T16:18:52;20.80;63.70
26541;DHT22;14206;50.202;10.948;2023-09-19T16:21:19;20.70;63.80
26541;DHT22;14206;50.202;10.948;2023-09-19T16:23:50;20.70;64.00
26541;DHT22;14206;50.202;10.948;2023-09-19T16:26:33;20.60;63.90
26541;DHT22;14206;50.202;10.948;2023-09-19T16:29:00;20.50;64.00
26541;DHT22;14206;50.202;10.948;2023-09-19T16:31:29;20.50;64.10
26541;DHT22;14206;50.202;10.948;2023-09-19T16:33:56;20.40;64.50
26541;DHT22;14206;50.202;10.948;2023-09-19T16:36:26;20.30;64.70
26541;DHT22;14206;50.202;10.948;2023-09-19T16:38:53;20.30;65.20
26541;DHT22;14206;50.202;10.948;2023-09-19T16:41:20;20.20;65.10
26541;DHT22;14206;50.202;10.948;2023-09-19T16:43:47;20.20;65.40